createdAt,value
2022-09-28T00:01:27.279Z,98394.22
2022-09-28T00:03:59.853Z,98396.38
2022-09-28T00:06:30.052Z,98394.75
2022-09-28T00:08:58.630Z,98395.59
2022-09-28T00:11:29.215Z,98396.91
2022-09-28T00:14:00.280Z,98397.75
2022-09-28T00:16:31.693Z,98401.22
2022-09-28T00:19:00.900Z,98400.34
2022-09-28T00:21:31.840Z,98400.50
2022-09-28T00:24:21.255Z,98391.88
2022-09-28T00:26:54.391Z,98400.81
2022-09-28T00:29:24.630Z,98401.94
2022-09-28T00:32:00.087Z,98400.28
2022-09-28T00:34:31.280Z,98396.78
2022-09-28T00:37:00.750Z,98395.66
2022-09-28T00:39:31.741Z,98398.91
2022-09-28T00:42:00.309Z,98400.50
2022-09-28T00:44:40.883Z,98388.50
2022-09-28T00:47:20.621Z,98388.66
2022-09-28T00:49:53.299Z,98389.91
2022-09-28T00:52:26.831Z,98393.78
2022-09-28T00:54:55.956Z,98391.47
2022-09-28T00:57:25.270Z,98402.25
2022-09-28T00:59:53.852Z,98385.03
2022-09-28T01:02:23.953Z,98402.75
2022-09-28T01:04:53.419Z,98402.03
2022-09-28T01:07:22.800Z,98391.97
2022-09-28T01:09:51.768Z,98393.22
2022-09-28T01:12:20.071Z,98396.91
2022-09-28T01:14:49.959Z,98390.91
2022-09-28T01:17:25.420Z,98395.06
2022-09-28T01:20:28.891Z,98393.22
2022-09-28T01:23:21.450Z,98396.75
2022-09-28T01:25:56.084Z,98393.50
2022-09-28T01:28:29.250Z,98388.44
2022-09-28T01:31:05.641Z,98394.59
2022-09-28T01:33:40.161Z,98395.66
2022-09-28T01:36:13.540Z,98388.75
2022-09-28T01:38:47.734Z,98389.59
2022-09-28T01:41:17.973Z,98400.16
2022-09-28T01:43:52.813Z,98395.84
2022-09-28T01:46:23.892Z,98387.38
2022-09-28T01:48:56.411Z,98396.28
2022-09-28T01:51:33.300Z,98387.66
2022-09-28T01:54:07.041Z,98387.66
2022-09-28T01:56:39.490Z,98390.19
2022-09-28T01:59:13.081Z,98387.50
2022-09-28T02:01:49.879Z,98389.06
2022-09-28T02:04:22.202Z,98386.44
2022-09-28T02:06:54.763Z,98389.22
2022-09-28T02:09:31.723Z,98386.44
2022-09-28T02:12:07.740Z,98381.53
2022-09-28T02:14:40.693Z,98381.13
2022-09-28T02:17:10.901Z,98383.34
2022-09-28T02:19:41.375Z,98380.34
2022-09-28T02:22:23.488Z,98373.03
2022-09-28T02:24:57.670Z,98370.19
2022-09-28T02:27:36.257Z,98370.84
2022-09-28T02:30:08.551Z,98367.06
2022-09-28T02:32:41.081Z,98368.69
2022-09-28T02:35:13.561Z,98375.63
2022-09-28T02:37:42.298Z,98371.91
2022-09-28T02:40:15.464Z,98372.50
2022-09-28T02:42:55.332Z,98370.59
2022-09-28T02:45:38.239Z,98374.06
2022-09-28T02:48:27.170Z,98371.44
2022-09-28T02:51:16.631Z,98382.75
2022-09-28T02:54:03.358Z,98383.69
2022-09-28T02:56:46.861Z,98384.69
2022-09-28T02:59:27.072Z,98377.13
2022-09-28T03:02:04.149Z,98386.09
2022-09-28T03:04:38.889Z,98383.31
2022-09-28T03:07:24.770Z,98385.78
2022-09-28T03:10:00.941Z,98393.38
2022-09-28T03:12:30.191Z,98379.34
2022-09-28T03:15:21.622Z,98385.19
2022-09-28T03:17:51.306Z,98388.66
2022-09-28T03:20:20.183Z,98391.53
2022-09-28T03:23:00.525Z,98387.28
2022-09-28T03:25:36.740Z,98386.53
2022-09-28T03:28:04.950Z,98389.47
2022-09-28T03:30:36.744Z,98387.78
2022-09-28T03:33:07.158Z,98385.31
2022-09-28T03:35:35.678Z,98389.13
2022-09-28T03:38:04.044Z,98384.25
2022-09-28T03:40:34.582Z,98390.59
2022-09-28T03:43:02.978Z,98383.06
2022-09-28T03:45:31.719Z,98391.13
2022-09-28T03:48:00.317Z,98380.22
2022-09-28T03:50:30.024Z,98384.91
2022-09-28T03:53:03.720Z,98384.16
2022-09-28T03:55:32.210Z,98393.91
2022-09-28T03:58:00.839Z,98395.84
2022-09-28T04:00:29.700Z,98385.50
2022-09-28T04:02:58.590Z,98387.50
2022-09-28T04:05:27.240Z,98394.75
2022-09-28T04:07:57.895Z,98395.81
2022-09-28T04:10:26.881Z,98397.81
2022-09-28T04:12:56.429Z,98396.28
2022-09-28T04:15:25.279Z,98406.78
2022-09-28T04:17:54.010Z,98394.63
2022-09-28T04:20:41.503Z,98405.94
2022-09-28T04:23:15.292Z,98405.34
2022-09-28T04:25:48.741Z,98399.47
2022-09-28T04:28:34.520Z,98411.78
2022-09-28T04:31:03.080Z,98413.78
2022-09-28T04:33:33.770Z,98416.31
2022-09-28T04:36:02.511Z,98404.84
2022-09-28T04:38:51.629Z,98404.53
2022-09-28T04:41:22.484Z,98394.50
2022-09-28T04:43:51.990Z,98394.88
2022-09-28T04:46:21.421Z,98397.81
2022-09-28T04:48:59.330Z,98395.66
2022-09-28T04:51:41.451Z,98393.38
2022-09-28T04:54:11.693Z,98402.81
2022-09-28T04:56:39.885Z,98398.31
2022-09-28T04:59:08.381Z,98405.84
2022-09-28T05:01:38.215Z,98395.91
2022-09-28T05:04:26.261Z,98398.97
2022-09-28T05:07:13.383Z,98396.56
2022-09-28T05:09:42.941Z,98391.78
2022-09-28T05:12:11.220Z,98401.84
2022-09-28T05:14:40.170Z,98393.50
2022-09-28T05:17:08.420Z,98394.97
2022-09-28T05:19:55.398Z,98392.03
2022-09-28T05:22:23.809Z,98395.25
2022-09-28T05:24:54.870Z,98391.69
2022-09-28T05:27:25.241Z,98390.69
2022-09-28T05:30:02.690Z,98398.38
2022-09-28T05:32:31.897Z,98396.72
2022-09-28T05:35:12.799Z,98393.38
2022-09-28T05:37:47.436Z,98392.97
2022-09-28T05:40:17.372Z,98398.53
2022-09-28T05:42:45.822Z,98407.78
2022-09-28T05:45:14.889Z,98406.38
2022-09-28T05:47:46.210Z,98405.19
2022-09-28T05:50:17.750Z,98415.97
2022-09-28T05:52:46.799Z,98400.56
2022-09-28T05:55:16.810Z,98411.22
2022-09-28T05:57:45.391Z,98409.84
2022-09-28T06:00:14.218Z,98414.53
2022-09-28T06:02:57.329Z,98405.91
2022-09-28T06:05:25.891Z,98406.38
2022-09-28T06:07:56.498Z,98406.06
2022-09-28T06:10:26.831Z,98409.06
2022-09-28T06:12:59.508Z,98410.28
2022-09-28T06:15:30.250Z,98413.19
2022-09-28T06:18:01.410Z,98413.34
2022-09-28T06:20:42.589Z,98413.50
2022-09-28T06:23:15.531Z,98410.03
2022-09-28T06:25:45.670Z,98414.34
2022-09-28T06:28:15.646Z,98417.78
2022-09-28T06:30:45.219Z,98414.22
2022-09-28T06:33:17.697Z,98420.19
2022-09-28T06:35:46.061Z,98413.91
2022-09-28T06:38:14.395Z,98417.28
2022-09-28T06:40:42.771Z,98424.00
2022-09-28T06:43:15.249Z,98420.16
2022-09-28T06:46:06.165Z,98429.00
2022-09-28T06:48:54.261Z,98433.44
2022-09-28T06:51:42.508Z,98431.69
2022-09-28T06:54:29.422Z,98430.75
2022-09-28T06:57:16.240Z,98437.59
2022-09-28T06:59:46.001Z,98434.06
2022-09-28T07:02:14.897Z,98438.66
2022-09-28T07:05:03.144Z,98438.22
2022-09-28T07:07:42.949Z,98438.06
2022-09-28T07:10:23.439Z,98431.91
2022-09-28T07:13:23.742Z,98437.97
2022-09-28T07:16:09.093Z,98431.91
2022-09-28T07:18:37.539Z,98431.06
2022-09-28T07:21:09.087Z,98434.75
2022-09-28T07:23:51.468Z,98443.75
2022-09-28T07:26:25.833Z,98442.38
2022-09-28T07:29:13.731Z,98437.47
2022-09-28T07:32:01.706Z,98443.78
2022-09-28T07:34:30.837Z,98435.75
2022-09-28T07:37:04.234Z,98441.84
2022-09-28T07:39:52.538Z,98441.59
2022-09-28T07:42:19.970Z,98436.78
2022-09-28T07:44:48.411Z,98439.16
2022-09-28T07:47:19.035Z,98449.56
2022-09-28T07:50:06.230Z,98440.94
2022-09-28T07:52:49.651Z,98438.75
2022-09-28T07:55:38.099Z,98454.22
2022-09-28T07:58:10.511Z,98448.56
2022-09-28T08:00:48.549Z,98456.09
2022-09-28T08:03:20.070Z,98452.19
2022-09-28T08:05:48.718Z,98469.47
2022-09-28T08:08:18.532Z,98463.06
2022-09-28T08:10:52.564Z,98463.47
2022-09-28T08:13:41.151Z,98453.81
2022-09-28T08:16:22.963Z,98455.31
2022-09-28T08:19:01.654Z,98461.00
2022-09-28T08:21:47.630Z,98456.41
2022-09-28T08:24:18.180Z,98459.38
2022-09-28T08:26:48.571Z,98462.69
2022-09-28T08:29:19.095Z,98445.75
2022-09-28T08:31:49.558Z,98451.41
2022-09-28T08:34:40.070Z,98458.25
2022-09-28T08:37:30.856Z,98460.78
2022-09-28T08:40:25.091Z,98461.47
2022-09-28T08:43:17.049Z,98463.38
2022-09-28T08:46:03.898Z,98471.91
2022-09-28T08:49:20.752Z,98468.09
2022-09-28T08:52:13.330Z,98463.59
2022-09-28T08:55:00.029Z,98468.69
2022-09-28T08:57:39.258Z,98463.06
2022-09-28T09:00:16.005Z,98456.06
2022-09-28T09:02:47.014Z,98464.66
2022-09-28T09:05:20.059Z,98455.25
2022-09-28T09:08:25.321Z,98468.28
2022-09-28T09:10:58.229Z,98459.97
2022-09-28T09:13:50.219Z,98453.41
2022-09-28T09:16:33.008Z,98460.91
2022-09-28T09:19:32.992Z,98461.19
2022-09-28T09:22:33.071Z,98457.94
2022-09-28T09:25:18.288Z,98462.13
2022-09-28T09:28:03.530Z,98456.78
2022-09-28T09:30:45.830Z,98449.34
2022-09-28T09:33:43.737Z,98454.00
2022-09-28T09:36:47.890Z,98450.19
2022-09-28T09:39:43.629Z,98459.31
2022-09-28T09:42:48.010Z,98457.25
2022-09-28T09:45:52.647Z,98460.59
2022-09-28T09:48:48.611Z,98457.72
2022-09-28T09:51:25.058Z,98454.56
2022-09-28T09:54:00.245Z,98455.03
2022-09-28T09:56:35.712Z,98452.72
2022-09-28T09:59:24.367Z,98453.94
2022-09-28T10:02:12.732Z,98459.31
2022-09-28T10:04:53.451Z,98457.84
2022-09-28T10:07:33.709Z,98466.66
2022-09-28T10:10:03.680Z,98471.13
2022-09-28T10:12:52.258Z,98461.44
2022-09-28T10:15:26.098Z,98468.22
2022-09-28T10:18:13.391Z,98453.94
2022-09-28T10:21:00.405Z,98452.13
2022-09-28T10:23:39.151Z,98461.47
2022-09-28T10:26:13.570Z,98454.59
2022-09-28T10:28:53.169Z,98444.47
2022-09-28T10:31:43.029Z,98456.78
2022-09-28T10:34:27.878Z,98458.88
2022-09-28T10:37:00.757Z,98455.31
2022-09-28T10:39:38.511Z,98451.72
2022-09-28T10:42:10.730Z,98447.50
2022-09-28T10:44:52.852Z,98458.88
2022-09-28T10:47:33.005Z,98459.75
2022-09-28T10:50:02.278Z,98461.81
2022-09-28T10:52:35.118Z,98461.19
2022-09-28T10:55:04.470Z,98456.56
2022-09-28T10:57:36.738Z,98453.63
2022-09-28T11:00:32.410Z,98452.66
2022-09-28T11:03:24.349Z,98447.53
2022-09-28T11:05:58.050Z,98457.28
2022-09-28T11:08:32.330Z,98453.22
2022-09-28T11:11:07.050Z,98464.16
2022-09-28T11:13:45.197Z,98469.31
2022-09-28T11:16:23.383Z,98464.97
2022-09-28T11:18:53.518Z,98459.69
2022-09-28T11:21:26.830Z,98462.03
2022-09-28T11:24:06.131Z,98451.19
2022-09-28T11:26:42.200Z,98452.13
2022-09-28T11:29:22.750Z,98443.06
2022-09-28T11:32:07.079Z,98444.53
2022-09-28T11:34:59.513Z,98435.75
2022-09-28T11:37:50.738Z,98441.50
2022-09-28T11:40:49.315Z,98450.22
2022-09-28T11:43:33.050Z,98451.00
2022-09-28T11:46:09.960Z,98454.56
2022-09-28T11:48:45.310Z,98452.78
2022-09-28T11:51:21.849Z,98453.56
2022-09-28T11:53:56.477Z,98455.75
2022-09-28T11:56:35.153Z,98450.97
2022-09-28T11:59:12.230Z,98448.31
2022-09-28T12:01:50.313Z,98443.31
2022-09-28T12:04:35.030Z,98443.28
2022-09-28T12:07:10.049Z,98442.75
2022-09-28T12:09:46.972Z,98448.06
2022-09-28T12:12:26.697Z,98440.38
2022-09-28T12:15:02.682Z,98439.59
2022-09-28T12:17:38.106Z,98427.84
2022-09-28T12:20:18.010Z,98422.72
2022-09-28T12:22:56.157Z,98421.75
2022-09-28T12:25:27.797Z,98425.13
2022-09-28T12:28:00.670Z,98421.97
2022-09-28T12:30:35.437Z,98422.63
2022-09-28T12:33:09.265Z,98415.44
2022-09-28T12:35:51.290Z,98406.50
2022-09-28T12:38:50.846Z,98414.56
2022-09-28T12:41:49.932Z,98414.81
2022-09-28T12:44:36.849Z,98411.00
2022-09-28T12:47:24.291Z,98423.97
2022-09-28T12:53:14.147Z,98412.41
2022-09-28T12:55:59.338Z,98406.72
2022-09-28T12:58:44.590Z,98399.41
2022-09-28T13:01:32.902Z,98397.00
2022-09-28T13:04:27.551Z,98401.97
2022-09-28T13:07:03.440Z,98398.41
2022-09-28T13:09:43.361Z,98391.13
2022-09-28T13:12:23.290Z,98388.84
2022-09-28T13:15:18.510Z,98386.88
2022-09-28T13:17:52.789Z,98377.34
2022-09-28T13:20:32.438Z,98380.38
2022-09-28T13:23:15.211Z,98378.59
2022-09-28T13:25:51.039Z,98376.31
2022-09-28T13:28:26.295Z,98374.16
2022-09-28T13:33:36.031Z,98371.75
2022-09-28T13:36:05.141Z,98371.19
2022-09-28T13:38:50.955Z,98377.06
2022-09-28T13:41:24.890Z,98376.53
2022-09-28T13:44:11.112Z,98390.25
2022-09-28T13:46:52.331Z,98386.09
2022-09-28T13:49:25.997Z,98384.00
2022-09-28T13:52:05.242Z,98387.94
2022-09-28T13:54:53.071Z,98382.06
2022-09-28T13:57:30.638Z,98377.53
2022-09-28T14:00:08.820Z,98382.81
2022-09-28T14:02:47.856Z,98381.81
2022-09-28T14:05:42.478Z,98372.19
2022-09-28T14:08:28.093Z,98372.88
2022-09-28T14:10:58.090Z,98368.84
2022-09-28T14:14:03.599Z,98358.75
2022-09-28T14:16:34.609Z,98353.91
2022-09-28T14:19:08.473Z,98361.16
2022-09-28T14:21:59.673Z,98359.59
2022-09-28T14:24:38.890Z,98355.28
2022-09-28T14:27:24.910Z,98346.31
2022-09-28T14:30:06.599Z,98350.28
2022-09-28T14:32:37.592Z,98339.41
2022-09-28T14:35:08.350Z,98329.41
2022-09-28T14:37:56.297Z,98341.63
2022-09-28T14:40:49.634Z,98346.25
2022-09-28T14:43:24.853Z,98350.41
2022-09-28T14:46:14.651Z,98338.53
2022-09-28T14:48:49.072Z,98342.91
2022-09-28T14:51:45.710Z,98356.28
2022-09-28T14:54:20.540Z,98353.16
2022-09-28T14:57:08.330Z,98346.28
2022-09-28T14:59:43.520Z,98337.28
2022-09-28T15:02:20.057Z,98338.50
2022-09-28T15:04:53.351Z,98342.13
2022-09-28T15:07:24.690Z,98339.47
2022-09-28T15:09:54.591Z,98344.72
2022-09-28T15:12:27.078Z,98338.25
2022-09-28T15:14:58.568Z,98342.69
2022-09-28T15:17:30.252Z,98340.66
2022-09-28T15:20:17.337Z,98344.13
2022-09-28T15:22:47.771Z,98339.69
2022-09-28T15:25:20.071Z,98343.41
2022-09-28T15:27:54.194Z,98334.19
2022-09-28T15:30:27.954Z,98328.22
2022-09-28T15:32:57.029Z,98327.53
2022-09-28T15:35:27.738Z,98327.50
2022-09-28T15:37:56.609Z,98329.78
2022-09-28T15:40:33.302Z,98329.38
2022-09-28T15:43:02.689Z,98326.25
2022-09-28T15:45:38.230Z,98330.13
2022-09-28T15:48:21.131Z,98330.38
2022-09-28T15:51:01.318Z,98332.31
2022-09-28T15:53:31.535Z,98342.13
2022-09-28T15:56:09.899Z,98328.66
2022-09-28T15:58:39.800Z,98333.78
2022-09-28T16:01:28.624Z,98335.16
2022-09-28T16:03:56.891Z,98333.22
2022-09-28T16:06:26.510Z,98343.16
2022-09-28T16:08:55.030Z,98337.88
2022-09-28T16:11:28.318Z,98336.84
2022-09-28T16:14:04.581Z,98335.75
2022-09-28T16:16:37.870Z,98332.19
2022-09-28T16:19:07.472Z,98330.91
2022-09-28T16:21:45.929Z,98332.47
2022-09-28T16:24:22.250Z,98327.94
2022-09-28T16:26:57.470Z,98333.69
2022-09-28T16:29:28.502Z,98335.34
2022-09-28T16:31:56.833Z,98328.81
2022-09-28T16:34:28.689Z,98346.25
2022-09-28T16:36:58.589Z,98351.97
2022-09-28T16:39:27.018Z,98344.41
2022-09-28T16:42:01.874Z,98350.59
2022-09-28T16:44:31.909Z,98356.53
2022-09-28T16:47:01.371Z,98352.53
2022-09-28T16:49:32.281Z,98361.72
2022-09-28T16:52:02.497Z,98360.06
2022-09-28T16:54:47.929Z,98360.88
2022-09-28T16:57:16.749Z,98361.00
2022-09-28T16:59:44.997Z,98360.38
2022-09-28T17:02:42.052Z,98361.41
2022-09-28T17:05:07.530Z,98358.88
2022-09-28T17:07:37.369Z,98352.97
2022-09-28T17:10:16.999Z,98345.59
2022-09-28T17:12:45.497Z,98349.44
2022-09-28T17:15:15.743Z,98358.09
2022-09-28T17:17:47.212Z,98353.97
2022-09-28T17:20:22.940Z,98352.53
2022-09-28T17:22:53.518Z,98355.97
2022-09-28T17:25:22.972Z,98363.75
2022-09-28T17:27:52.911Z,98358.28
2022-09-28T17:30:23.737Z,98360.88
2022-09-28T17:32:54.102Z,98360.75
2022-09-28T17:35:25.060Z,98371.28
2022-09-28T17:37:55.351Z,98368.75
2022-09-28T17:40:28.337Z,98364.84
2022-09-28T17:42:57.848Z,98361.88
2022-09-28T17:45:28.692Z,98370.38
2022-09-28T17:47:57.398Z,98371.50
2022-09-28T17:50:28.049Z,98375.09
2022-09-28T17:52:59.869Z,98374.03
2022-09-28T17:55:30.630Z,98373.31
2022-09-28T17:57:59.690Z,98377.84
2022-09-28T18:00:28.533Z,98373.50
2022-09-28T18:02:58.261Z,98372.06
2022-09-28T18:05:28.350Z,98380.19
2022-09-28T18:07:59.282Z,98380.94
2022-09-28T18:10:29.838Z,98378.28
2022-09-28T18:12:58.378Z,98377.44
2022-09-28T18:15:26.619Z,98381.97
2022-09-28T18:17:54.956Z,98384.72
2022-09-28T18:20:23.439Z,98379.66
2022-09-28T18:22:51.809Z,98389.25
2022-09-28T18:25:22.370Z,98390.38
2022-09-28T18:27:50.939Z,98383.44
2022-09-28T18:30:19.345Z,98390.50
2022-09-28T18:32:47.793Z,98387.41
2022-09-28T18:35:20.609Z,98392.72
2022-09-28T18:37:51.797Z,98396.19
2022-09-28T18:40:21.969Z,98398.75
2022-09-28T18:42:51.709Z,98400.06
2022-09-28T18:45:20.709Z,98402.31
2022-09-28T18:47:48.991Z,98402.06
2022-09-28T18:50:17.490Z,98395.38
2022-09-28T18:52:47.364Z,98395.97
2022-09-28T18:55:16.033Z,98394.44
2022-09-28T18:57:46.851Z,98407.00
2022-09-28T19:00:16.210Z,98406.53
2022-09-28T19:02:44.879Z,98407.75
2022-09-28T19:05:13.370Z,98406.06
2022-09-28T19:07:41.658Z,98399.31
2022-09-28T19:10:10.277Z,98405.69
2022-09-28T19:12:38.731Z,98413.19
2022-09-28T19:15:09.117Z,98406.97
2022-09-28T19:17:37.769Z,98411.97
2022-09-28T19:20:06.833Z,98411.84
2022-09-28T19:22:35.249Z,98409.66
2022-09-28T19:25:03.518Z,98407.59
2022-09-28T19:27:32.078Z,98422.38
2022-09-28T19:30:00.326Z,98417.97
2022-09-28T19:32:30.377Z,98420.88
2022-09-28T19:34:59.437Z,98419.16
2022-09-28T19:37:27.740Z,98419.16
2022-09-28T19:39:55.997Z,98416.66
2022-09-28T19:42:24.376Z,98433.56
2022-09-28T19:44:52.510Z,98404.31
2022-09-28T19:47:21.863Z,98428.44
2022-09-28T19:49:51.669Z,98428.00
2022-09-28T19:52:19.971Z,98430.06
2022-09-28T19:54:56.907Z,98427.78
2022-09-28T19:57:27.868Z,98418.38
2022-09-28T20:00:01.747Z,98427.16
2022-09-28T20:02:34.181Z,98432.75
2022-09-28T20:05:04.081Z,98431.38
2022-09-28T20:07:34.185Z,98435.88
2022-09-28T20:10:02.505Z,98436.88
2022-09-28T20:12:30.826Z,98441.50
2022-09-28T20:14:59.250Z,98430.50
2022-09-28T20:17:27.689Z,98443.69
2022-09-28T20:19:57.711Z,98444.53
2022-09-28T20:22:28.130Z,98439.47
2022-09-28T20:24:56.590Z,98441.47
2022-09-28T20:27:26.908Z,98443.44
2022-09-28T20:29:55.578Z,98449.66
2022-09-28T20:32:23.877Z,98447.13
2022-09-28T20:34:52.217Z,98447.88
2022-09-28T20:37:20.613Z,98447.97
2022-09-28T20:39:50.834Z,98447.22
2022-09-28T20:42:20.230Z,98444.59
2022-09-28T20:44:48.730Z,98446.28
2022-09-28T20:47:17.149Z,98440.44
2022-09-28T20:49:46.496Z,98440.63
2022-09-28T20:52:14.830Z,98442.72
2022-09-28T20:54:43.090Z,98442.72
2022-09-28T20:57:18.510Z,98440.94
2022-09-28T20:59:49.761Z,98442.91
2022-09-28T21:02:22.506Z,98435.28
2022-09-28T21:04:50.870Z,98436.44
2022-09-28T21:07:19.040Z,98442.00
2022-09-28T21:09:47.369Z,98439.53
2022-09-28T21:12:17.237Z,98434.53
2022-09-28T21:14:45.691Z,98429.38
2022-09-28T21:17:14.127Z,98431.91
2022-09-28T21:19:42.557Z,98431.91
2022-09-28T21:22:10.929Z,98433.69
2022-09-28T21:24:39.529Z,98426.97
2022-09-28T21:27:07.937Z,98426.31
2022-09-28T21:29:37.518Z,98423.91
2022-09-28T21:32:06.070Z,98433.63
2022-09-28T21:34:35.831Z,98426.78
2022-09-28T21:37:04.183Z,98424.31
2022-09-28T21:39:32.609Z,98424.47
2022-09-28T21:42:00.779Z,98429.00
2022-09-28T21:44:29.237Z,98422.00
2022-09-28T21:46:59.079Z,98423.47
2022-09-28T21:49:27.380Z,98426.44
2022-09-28T21:51:55.689Z,98427.69
2022-09-28T21:54:23.910Z,98419.34
2022-09-28T21:56:52.718Z,98418.81
2022-09-28T21:59:21.037Z,98423.31
2022-09-28T22:01:49.328Z,98413.06
2022-09-28T22:04:19.004Z,98423.75
2022-09-28T22:06:47.548Z,98416.84
2022-09-28T22:09:15.737Z,98417.16
2022-09-28T22:11:44.249Z,98417.00
2022-09-28T22:14:12.630Z,98416.84
2022-09-28T22:16:41.289Z,98420.38
2022-09-28T22:19:09.617Z,98417.69
2022-09-28T22:21:39.869Z,98413.38
2022-09-28T22:24:08.949Z,98423.00
2022-09-28T22:26:39.468Z,98416.09
2022-09-28T22:29:10.012Z,98420.56
2022-09-28T22:31:40.103Z,98413.63
2022-09-28T22:34:09.098Z,98406.53
2022-09-28T22:36:37.550Z,98412.72
2022-09-28T22:39:07.537Z,98411.78
2022-09-28T22:41:36.049Z,98418.03
2022-09-28T22:44:04.454Z,98407.88
2022-09-28T22:46:33.102Z,98406.44
2022-09-28T22:49:01.949Z,98412.00
2022-09-28T22:51:31.837Z,98403.63
2022-09-28T22:54:00.350Z,98406.66
2022-09-28T22:56:30.591Z,98406.16
2022-09-28T22:58:59.071Z,98401.91
2022-09-28T23:01:29.699Z,98404.59
2022-09-28T23:03:59.502Z,98399.56
2022-09-28T23:06:30.907Z,98400.69
2022-09-28T23:08:59.377Z,98391.19
2022-09-28T23:11:29.719Z,98394.75
2022-09-28T23:13:59.899Z,98389.44
2022-09-28T23:16:30.185Z,98388.19
2022-09-28T23:18:58.970Z,98381.63
2022-09-28T23:21:28.609Z,98377.66
2022-09-28T23:23:59.189Z,98379.97
2022-09-28T23:26:30.818Z,98379.81
2022-09-28T23:29:00.130Z,98383.69
2022-09-28T23:31:30.051Z,98375.59
2022-09-28T23:33:59.656Z,98372.09
2022-09-28T23:36:28.402Z,98372.19
2022-09-28T23:38:56.690Z,98366.94
2022-09-28T23:41:25.277Z,98372.38
2022-09-28T23:43:54.753Z,98366.63
2022-09-28T23:46:23.203Z,98366.72
2022-09-28T23:48:51.756Z,98364.09
2022-09-28T23:51:20.068Z,98358.66
2022-09-28T23:53:48.329Z,98361.88
2022-09-28T23:56:17.018Z,98361.59
2022-09-28T23:58:45.329Z,98368.28
